createdAt,value
2022-12-16T00:00:15.013Z,77.10
2022-12-16T00:02:42.844Z,77.10
2022-12-16T00:05:09.806Z,77.20
2022-12-16T00:07:36.543Z,77.30
2022-12-16T00:10:05.284Z,77.30
2022-12-16T00:12:32.075Z,77.30
2022-12-16T00:14:59.022Z,77.30
2022-12-16T00:17:25.852Z,77.20
2022-12-16T00:19:52.654Z,77.10
2022-12-16T00:22:19.379Z,77.20
2022-12-16T00:24:49.467Z,77.20
2022-12-16T00:27:17.459Z,77.20
2022-12-16T00:29:44.853Z,77.30
2022-12-16T00:32:13.986Z,77.30
2022-12-16T00:34:40.775Z,77.10
2022-12-16T00:37:07.558Z,77.10
2022-12-16T00:39:34.252Z,77.20
2022-12-16T00:42:00.938Z,77.20
2022-12-16T00:44:28.062Z,77.20
2022-12-16T00:46:55.079Z,77.20
2022-12-16T00:49:21.853Z,77.30
2022-12-16T00:51:49.652Z,77.30
2022-12-16T00:54:19.874Z,77.30
2022-12-16T00:56:46.706Z,77.30
2022-12-16T00:59:15.086Z,77.30
2022-12-16T01:01:41.987Z,77.30
2022-12-16T01:04:08.969Z,77.30
2022-12-16T01:06:35.824Z,77.30
2022-12-16T01:09:02.512Z,77.30
2022-12-16T01:11:29.279Z,77.30
2022-12-16T01:13:56.334Z,77.40
2022-12-16T01:16:23.102Z,77.40
2022-12-16T01:18:49.919Z,77.40
2022-12-16T01:21:19.513Z,78.20
2022-12-16T01:23:48.045Z,77.40
2022-12-16T01:26:18.018Z,77.40
2022-12-16T01:28:47.713Z,77.40
2022-12-16T01:31:17.203Z,77.50
2022-12-16T01:33:47.089Z,77.50
2022-12-16T01:36:13.851Z,77.50
2022-12-16T01:38:42.925Z,77.60
2022-12-16T01:41:10.502Z,77.60
2022-12-16T01:43:39.126Z,77.60
2022-12-16T01:46:09.132Z,77.70
2022-12-16T01:48:41.821Z,77.60
2022-12-16T01:51:16.014Z,77.60
2022-12-16T01:53:44.729Z,77.70
2022-12-16T01:56:16.214Z,77.70
2022-12-16T01:58:44.055Z,77.70
2022-12-16T02:01:11.133Z,77.70
2022-12-16T02:03:39.857Z,77.80
2022-12-16T02:06:07.417Z,77.80
2022-12-16T02:08:37.539Z,77.80
2022-12-16T02:11:22.997Z,77.80
2022-12-16T02:14:21.040Z,77.80
2022-12-16T02:17:27.331Z,78.20
2022-12-16T02:20:19.044Z,77.90
2022-12-16T02:23:10.901Z,77.90
2022-12-16T02:26:04.860Z,77.80
2022-12-16T02:28:58.778Z,77.80
2022-12-16T02:31:41.811Z,77.80
2022-12-16T02:34:41.678Z,77.90
2022-12-16T02:37:36.217Z,77.90
2022-12-16T02:40:37.528Z,77.90
2022-12-16T02:43:11.217Z,78.00
2022-12-16T02:45:38.872Z,78.00
2022-12-16T02:48:08.226Z,78.00
2022-12-16T02:50:45.217Z,78.00
2022-12-16T02:53:12.992Z,78.10
2022-12-16T02:55:48.725Z,78.10
2022-12-16T02:58:38.527Z,78.10
2022-12-16T03:02:00.004Z,78.10
2022-12-16T03:04:49.583Z,78.10
2022-12-16T03:07:18.683Z,78.10
2022-12-16T03:09:47.302Z,78.20
2022-12-16T03:12:16.692Z,79.10
2022-12-16T03:14:46.600Z,78.20
2022-12-16T03:17:15.694Z,78.20
2022-12-16T03:19:47.546Z,78.30
2022-12-16T03:22:29.479Z,78.30
2022-12-16T03:24:56.677Z,78.30
2022-12-16T03:27:46.229Z,78.40
2022-12-16T03:30:35.202Z,78.50
2022-12-16T03:33:27.887Z,78.50
2022-12-16T03:36:02.401Z,78.50
2022-12-16T03:38:30.831Z,78.50
2022-12-16T03:40:59.895Z,78.60
2022-12-16T03:43:27.335Z,78.60
2022-12-16T03:45:58.122Z,78.70
2022-12-16T03:48:26.389Z,78.70
2022-12-16T03:50:56.495Z,78.70
2022-12-16T03:53:26.421Z,78.80
2022-12-16T03:55:54.549Z,78.70
2022-12-16T03:58:21.816Z,79.00
2022-12-16T04:00:48.763Z,78.90
2022-12-16T04:03:15.709Z,78.90
2022-12-16T04:05:42.578Z,78.90
2022-12-16T04:08:09.340Z,79.90
2022-12-16T04:10:54.652Z,79.00
2022-12-16T04:13:40.286Z,79.00
2022-12-16T04:16:33.121Z,79.00
2022-12-16T04:19:19.229Z,79.10
2022-12-16T04:22:18.450Z,79.10
2022-12-16T04:24:45.246Z,79.10
2022-12-16T04:27:27.880Z,79.20
2022-12-16T04:30:15.698Z,79.30
2022-12-16T04:33:01.139Z,79.30
2022-12-16T04:35:46.642Z,79.40
2022-12-16T04:38:32.149Z,79.40
2022-12-16T04:41:17.698Z,79.40
2022-12-16T04:44:03.209Z,79.40
2022-12-16T04:46:48.829Z,79.50
2022-12-16T04:49:34.443Z,79.60
2022-12-16T04:52:19.899Z,79.70
2022-12-16T04:55:16.286Z,79.70
2022-12-16T04:58:07.446Z,79.80
2022-12-16T05:00:52.916Z,79.70
2022-12-16T05:03:38.073Z,79.80
2022-12-16T05:06:24.021Z,79.90
2022-12-16T05:09:09.478Z,79.90
2022-12-16T05:11:55.171Z,79.90
2022-12-16T05:14:42.699Z,79.90
2022-12-16T05:17:28.399Z,80.00
2022-12-16T05:20:13.921Z,80.00
2022-12-16T05:22:59.560Z,80.00
2022-12-16T05:25:45.131Z,80.00
2022-12-16T05:28:30.576Z,80.00
2022-12-16T05:31:16.020Z,80.00
2022-12-16T05:34:04.368Z,80.20
2022-12-16T05:36:49.702Z,81.00
2022-12-16T05:39:34.833Z,80.20
2022-12-16T05:42:20.248Z,80.30
2022-12-16T05:45:05.278Z,80.30
2022-12-16T05:47:50.698Z,80.40
2022-12-16T05:50:36.129Z,80.40
2022-12-16T05:53:24.318Z,80.40
2022-12-16T05:56:10.106Z,80.40
2022-12-16T05:58:55.344Z,80.40
2022-12-16T06:01:41.025Z,80.40
2022-12-16T06:04:26.701Z,80.50
2022-12-16T06:07:12.640Z,80.50
2022-12-16T06:09:58.078Z,81.40
2022-12-16T06:12:43.304Z,80.50
2022-12-16T06:15:29.263Z,80.50
2022-12-16T06:18:15.045Z,80.40
2022-12-16T06:21:00.329Z,80.50
2022-12-16T06:23:45.869Z,80.40
2022-12-16T06:26:31.442Z,80.40
2022-12-16T06:29:16.949Z,80.50
2022-12-16T06:32:02.298Z,80.50
2022-12-16T06:34:47.661Z,80.50
2022-12-16T06:37:33.051Z,80.50
2022-12-16T06:40:18.286Z,80.60
2022-12-16T06:43:03.617Z,80.60
2022-12-16T06:45:49.323Z,80.50
2022-12-16T06:48:34.691Z,80.60
2022-12-16T06:51:23.469Z,80.60
2022-12-16T06:54:09.183Z,80.50
2022-12-16T06:56:54.657Z,80.60
2022-12-16T06:59:40.153Z,80.60
2022-12-16T07:02:29.790Z,80.60
2022-12-16T07:05:15.391Z,80.50
2022-12-16T07:08:08.816Z,80.60
2022-12-16T07:10:55.293Z,80.50
2022-12-16T07:13:42.314Z,80.50
2022-12-16T07:16:27.619Z,80.50
2022-12-16T07:19:13.840Z,80.40
2022-12-16T07:21:59.098Z,80.40
2022-12-16T07:24:47.442Z,80.50
2022-12-16T07:27:32.911Z,80.50
2022-12-16T07:30:18.422Z,80.60
2022-12-16T07:33:03.816Z,80.50
2022-12-16T07:35:49.471Z,80.60
2022-12-16T07:38:34.852Z,80.60
2022-12-16T07:41:19.979Z,80.40
2022-12-16T07:44:05.456Z,80.60
2022-12-16T07:46:50.785Z,80.50
2022-12-16T07:49:39.675Z,80.40
2022-12-16T07:52:25.268Z,80.30
2022-12-16T07:55:10.762Z,80.40
2022-12-16T07:57:57.729Z,80.60
2022-12-16T08:00:56.728Z,80.70
2022-12-16T08:03:45.217Z,80.60
2022-12-16T08:06:30.692Z,80.70
2022-12-16T08:09:16.413Z,81.60
2022-12-16T08:12:01.796Z,80.80
2022-12-16T08:14:47.503Z,80.70
2022-12-16T08:17:32.739Z,80.70
2022-12-16T08:20:18.396Z,80.70
2022-12-16T08:23:03.616Z,80.60
2022-12-16T08:25:49.388Z,80.50
2022-12-16T08:28:34.771Z,80.50
2022-12-16T08:31:20.292Z,80.50
2022-12-16T08:34:05.881Z,80.50
2022-12-16T08:36:51.586Z,80.50
2022-12-16T08:39:37.178Z,80.40
2022-12-16T08:42:24.932Z,80.50
2022-12-16T08:45:10.345Z,80.50
2022-12-16T08:47:55.856Z,80.50
2022-12-16T08:50:41.653Z,80.40
2022-12-16T08:53:28.179Z,80.40
2022-12-16T08:56:13.692Z,80.40
2022-12-16T08:58:59.320Z,80.50
2022-12-16T09:01:44.817Z,80.50
2022-12-16T09:04:30.176Z,80.60
2022-12-16T09:07:15.806Z,80.60
2022-12-16T09:10:01.124Z,80.60
2022-12-16T09:12:46.833Z,80.60
2022-12-16T09:15:32.234Z,80.80
2022-12-16T09:18:17.694Z,80.90
2022-12-16T09:21:03.576Z,81.00
2022-12-16T09:23:49.101Z,81.10
2022-12-16T09:26:36.227Z,81.10
2022-12-16T09:29:21.760Z,81.30
2022-12-16T09:32:07.185Z,81.40
2022-12-16T09:34:52.578Z,81.50
2022-12-16T09:37:39.772Z,81.50
2022-12-16T09:40:25.504Z,81.50
2022-12-16T09:43:46.311Z,81.60
2022-12-16T09:46:59.199Z,81.60
2022-12-16T09:50:06.749Z,81.70
2022-12-16T09:52:59.396Z,81.90
2022-12-16T09:56:13.909Z,81.80
2022-12-16T09:59:04.026Z,81.70
2022-12-16T10:01:55.388Z,81.40
2022-12-16T10:04:43.099Z,81.30
2022-12-16T10:07:36.412Z,81.00
2022-12-16T10:10:26.219Z,80.90
2022-12-16T10:13:34.378Z,81.10
2022-12-16T10:16:32.828Z,81.20
2022-12-16T10:19:57.255Z,81.40
2022-12-16T10:22:50.992Z,81.60
2022-12-16T10:25:41.514Z,81.60
2022-12-16T10:29:02.346Z,81.60
2022-12-16T10:31:48.581Z,81.60
2022-12-16T10:34:43.106Z,81.70
2022-12-16T10:37:53.476Z,81.60
2022-12-16T10:40:43.702Z,82.50
2022-12-16T10:43:49.698Z,81.70
2022-12-16T10:46:41.636Z,81.40
2022-12-16T10:49:33.908Z,81.30
2022-12-16T10:52:22.411Z,81.20
2022-12-16T10:55:40.938Z,81.30
2022-12-16T10:58:44.309Z,81.40
2022-12-16T11:01:46.829Z,81.20
2022-12-16T11:04:48.587Z,81.30
2022-12-16T11:07:53.835Z,81.20
2022-12-16T11:10:45.290Z,81.10
2022-12-16T11:13:39.064Z,81.30
2022-12-16T11:16:35.389Z,81.40
2022-12-16T11:19:21.609Z,81.60
2022-12-16T11:22:08.320Z,81.70
2022-12-16T11:24:54.425Z,81.50
2022-12-16T11:27:39.824Z,81.40
2022-12-16T11:30:39.749Z,81.40
2022-12-16T11:33:47.711Z,81.40
2022-12-16T11:36:41.260Z,81.30
2022-12-16T11:39:32.463Z,81.40
2022-12-16T11:42:18.648Z,81.40
2022-12-16T11:45:14.010Z,81.40
2022-12-16T11:48:07.803Z,81.50
2022-12-16T11:50:59.551Z,81.40
2022-12-16T11:53:51.421Z,82.20
2022-12-16T11:56:54.662Z,81.10
2022-12-16T11:59:43.924Z,80.90
2022-12-16T12:02:42.041Z,81.10
2022-12-16T12:05:31.785Z,81.10
2022-12-16T12:08:28.292Z,81.00
2022-12-16T12:11:28.666Z,81.00
2022-12-16T12:14:36.593Z,81.20
2022-12-16T12:17:52.912Z,81.40
2022-12-16T12:20:51.690Z,81.30
2022-12-16T12:24:17.861Z,81.20
2022-12-16T12:27:20.615Z,81.10
2022-12-16T12:30:28.704Z,81.20
2022-12-16T12:33:37.869Z,81.30
2022-12-16T12:36:55.590Z,80.80
2022-12-16T12:39:48.628Z,80.70
2022-12-16T12:43:09.298Z,80.50
2022-12-16T12:46:00.560Z,80.50
2022-12-16T12:49:26.872Z,80.60
2022-12-16T12:52:40.186Z,80.70
2022-12-16T12:55:41.985Z,80.70
2022-12-16T12:58:31.077Z,80.70
2022-12-16T13:01:19.118Z,80.70
2022-12-16T13:04:15.344Z,80.70
2022-12-16T13:07:01.000Z,80.70
2022-12-16T13:09:54.819Z,80.70
2022-12-16T13:12:51.406Z,80.60
2022-12-16T13:15:58.309Z,80.50
2022-12-16T13:18:51.069Z,80.40
2022-12-16T13:21:56.137Z,80.40
2022-12-16T13:24:44.239Z,80.30
2022-12-16T13:27:34.138Z,80.20
2022-12-16T13:30:23.497Z,80.20
2022-12-16T13:33:34.698Z,80.20
2022-12-16T13:36:20.626Z,80.40
2022-12-16T13:39:08.730Z,80.40
2022-12-16T13:41:53.912Z,80.40
2022-12-16T13:45:01.190Z,80.50
2022-12-16T13:48:00.095Z,80.40
2022-12-16T13:51:06.447Z,80.50
2022-12-16T13:54:07.818Z,80.50
2022-12-16T13:57:07.412Z,80.60
2022-12-16T14:00:04.116Z,80.60
2022-12-16T14:02:57.079Z,80.50
2022-12-16T14:05:46.463Z,80.60
2022-12-16T14:08:36.497Z,80.60
2022-12-16T14:11:24.909Z,80.70
2022-12-16T14:14:13.238Z,80.50
2022-12-16T14:17:15.001Z,80.50
2022-12-16T14:20:26.518Z,80.50
2022-12-16T14:23:56.326Z,80.40
2022-12-16T14:26:42.885Z,80.50
2022-12-16T14:29:40.952Z,80.60
2022-12-16T14:32:47.455Z,81.20
2022-12-16T14:35:45.246Z,80.50
2022-12-16T14:38:46.886Z,80.50
2022-12-16T14:41:39.514Z,80.60
2022-12-16T14:44:39.047Z,80.50
2022-12-16T14:47:25.249Z,81.30
2022-12-16T14:50:12.985Z,80.50
2022-12-16T14:52:58.561Z,80.60
2022-12-16T14:55:50.992Z,80.60
2022-12-16T14:58:43.324Z,80.60
2022-12-16T15:01:37.494Z,80.60
2022-12-16T15:04:27.738Z,80.40
2022-12-16T15:07:17.875Z,80.50
2022-12-16T15:10:10.184Z,80.50
2022-12-16T15:12:58.814Z,81.20
2022-12-16T15:15:52.871Z,80.40
2022-12-16T15:18:47.387Z,80.40
2022-12-16T15:21:32.867Z,81.20
2022-12-16T15:24:21.603Z,80.40
2022-12-16T15:27:07.505Z,80.40
2022-12-16T15:29:55.278Z,80.60
2022-12-16T15:32:43.378Z,80.60
2022-12-16T15:35:52.705Z,80.70
2022-12-16T15:38:48.549Z,80.60
2022-12-16T15:41:45.375Z,80.60
2022-12-16T15:44:39.972Z,80.60
2022-12-16T15:47:51.361Z,80.70
2022-12-16T15:50:40.697Z,80.60
2022-12-16T15:54:11.563Z,80.60
2022-12-16T15:57:02.652Z,80.60
2022-12-16T15:59:50.828Z,80.70
2022-12-16T16:02:43.120Z,80.70
2022-12-16T16:05:49.235Z,80.60
2022-12-16T16:08:35.150Z,80.60
2022-12-16T16:11:20.498Z,80.50
2022-12-16T16:14:12.282Z,80.50
2022-12-16T16:16:59.681Z,80.50
2022-12-16T16:19:46.361Z,81.30
2022-12-16T16:22:35.071Z,80.50
2022-12-16T16:25:20.890Z,80.50
2022-12-16T16:28:06.505Z,80.70
2022-12-16T16:30:52.110Z,80.60
2022-12-16T16:33:37.724Z,80.60
2022-12-16T16:36:33.164Z,80.70
2022-12-16T16:39:19.158Z,80.80
2022-12-16T16:42:04.390Z,80.70
2022-12-16T16:44:50.073Z,80.70
2022-12-16T16:47:36.650Z,80.80
2022-12-16T16:50:25.497Z,80.80
2022-12-16T16:53:11.193Z,80.80
2022-12-16T16:56:07.149Z,80.80
2022-12-16T16:58:53.340Z,80.80
2022-12-16T17:01:38.817Z,80.90
2022-12-16T17:04:24.329Z,80.80
2022-12-16T17:07:13.265Z,80.80
2022-12-16T17:09:58.436Z,80.70
2022-12-16T17:12:49.234Z,80.80
2022-12-16T17:15:40.628Z,80.70
2022-12-16T17:18:26.553Z,80.70
2022-12-16T17:21:12.863Z,80.80
2022-12-16T17:23:59.041Z,80.80
2022-12-16T17:26:47.505Z,80.70
2022-12-16T17:29:44.232Z,80.60
2022-12-16T17:32:30.647Z,80.50
2022-12-16T17:35:16.790Z,80.60
2022-12-16T17:38:02.384Z,80.50
2022-12-16T17:40:48.142Z,80.60
2022-12-16T17:43:34.061Z,80.50
2022-12-16T17:46:25.912Z,80.60
2022-12-16T17:49:12.952Z,80.60
2022-12-16T17:51:58.495Z,80.50
2022-12-16T17:54:44.261Z,80.40
2022-12-16T17:57:30.360Z,80.50
2022-12-16T18:00:16.077Z,80.50
2022-12-16T18:03:01.906Z,80.50
2022-12-16T18:05:50.048Z,80.60
2022-12-16T18:08:35.543Z,80.60
2022-12-16T18:11:23.344Z,80.60
2022-12-16T18:14:08.673Z,80.60
2022-12-16T18:16:54.244Z,80.70
2022-12-16T18:19:42.810Z,80.80
2022-12-16T18:22:28.433Z,80.70
2022-12-16T18:25:16.132Z,80.80
2022-12-16T18:28:01.330Z,80.80
2022-12-16T18:30:46.886Z,80.80
2022-12-16T18:33:32.880Z,80.80
2022-12-16T18:36:18.451Z,80.90
2022-12-16T18:39:03.844Z,80.90
2022-12-16T18:41:49.384Z,80.90
2022-12-16T18:44:34.887Z,80.90
2022-12-16T18:47:20.332Z,80.90
2022-12-16T18:50:06.261Z,80.80
2022-12-16T18:52:51.961Z,80.80
2022-12-16T18:55:37.483Z,80.90
2022-12-16T19:01:30.364Z,80.90
2022-12-16T19:04:16.846Z,80.90
2022-12-16T19:07:02.523Z,80.90
2022-12-16T19:09:48.187Z,80.90
2022-12-16T19:12:37.888Z,80.90
2022-12-16T19:15:23.365Z,80.90
2022-12-16T19:18:08.778Z,80.90
2022-12-16T19:20:54.518Z,80.90
2022-12-16T19:23:42.629Z,81.00
2022-12-16T19:26:28.547Z,81.00
2022-12-16T19:29:14.140Z,80.90
2022-12-16T19:31:59.540Z,81.00
2022-12-16T19:34:45.155Z,81.00
2022-12-16T19:37:30.454Z,81.00
2022-12-16T19:40:16.039Z,81.10
2022-12-16T19:43:01.369Z,81.10
2022-12-16T19:45:52.890Z,81.10
2022-12-16T19:48:41.749Z,81.20
2022-12-16T19:51:27.379Z,81.20
2022-12-16T19:54:12.828Z,81.10
2022-12-16T19:56:58.411Z,81.20
2022-12-16T19:59:43.615Z,81.10
2022-12-16T20:02:30.218Z,81.00
2022-12-16T20:05:16.060Z,81.10
2022-12-16T20:08:01.568Z,81.10
2022-12-16T20:10:46.965Z,81.20
2022-12-16T20:13:33.124Z,81.20
2022-12-16T20:16:22.709Z,81.20
2022-12-16T20:19:08.100Z,81.20
2022-12-16T20:21:56.155Z,81.20
2022-12-16T20:24:58.960Z,82.00
2022-12-16T20:27:44.247Z,81.20
2022-12-16T20:30:47.401Z,81.20
2022-12-16T20:33:34.922Z,81.20
2022-12-16T20:36:22.795Z,81.30
2022-12-16T20:39:08.059Z,81.20
2022-12-16T20:41:56.172Z,81.70
2022-12-16T20:44:42.024Z,81.30
2022-12-16T20:47:29.383Z,81.30
2022-12-16T20:50:14.959Z,81.30
2022-12-16T20:53:00.443Z,81.30
2022-12-16T20:55:45.792Z,81.30
2022-12-16T20:58:39.389Z,81.30
2022-12-16T21:01:25.123Z,81.40
2022-12-16T21:04:13.379Z,81.30
2022-12-16T21:06:58.887Z,81.20
2022-12-16T21:09:46.475Z,81.30
2022-12-16T21:12:32.006Z,81.30
2022-12-16T21:15:17.721Z,81.30
2022-12-16T21:18:02.912Z,81.40
2022-12-16T21:20:48.563Z,81.40
2022-12-16T21:23:33.672Z,81.40
2022-12-16T21:26:19.546Z,81.30
2022-12-16T21:29:05.632Z,81.40
2022-12-16T21:31:51.214Z,81.40
2022-12-16T21:34:39.046Z,81.40
2022-12-16T21:37:24.657Z,81.40
2022-12-16T21:40:10.383Z,81.40
2022-12-16T21:42:56.216Z,81.20
2022-12-16T21:45:41.974Z,81.20
2022-12-16T21:48:29.863Z,81.20
2022-12-16T21:51:15.567Z,81.10
2022-12-16T21:57:09.658Z,81.20
2022-12-16T21:59:56.364Z,81.10
2022-12-16T22:02:42.100Z,81.20
2022-12-16T22:05:29.462Z,81.20
2022-12-16T22:08:29.500Z,81.30
2022-12-16T22:11:15.046Z,81.30
2022-12-16T22:14:00.539Z,81.30
2022-12-16T22:16:46.240Z,81.30
2022-12-16T22:19:31.318Z,81.40
2022-12-16T22:22:16.851Z,81.40
2022-12-16T22:25:02.387Z,81.40
2022-12-16T22:27:47.591Z,81.40
2022-12-16T22:30:32.938Z,81.40
2022-12-16T22:33:18.467Z,81.50
2022-12-16T22:36:07.054Z,81.40
2022-12-16T22:38:52.556Z,81.40
2022-12-16T22:41:37.697Z,81.40
2022-12-16T22:44:23.372Z,81.40
2022-12-16T22:47:08.714Z,81.40
2022-12-16T22:49:56.066Z,81.40
2022-12-16T22:52:41.581Z,81.50
2022-12-16T22:55:27.279Z,81.50
2022-12-16T22:58:13.267Z,81.50
2022-12-16T23:00:58.796Z,81.50
2022-12-16T23:03:44.717Z,81.50
2022-12-16T23:06:30.538Z,81.50
2022-12-16T23:09:16.116Z,81.60
2022-12-16T23:12:03.573Z,81.60
2022-12-16T23:14:49.075Z,81.60
2022-12-16T23:17:34.660Z,81.60
2022-12-16T23:20:21.777Z,81.60
2022-12-16T23:23:08.145Z,81.60
2022-12-16T23:25:53.881Z,81.60
2022-12-16T23:28:39.463Z,81.60
2022-12-16T23:31:25.178Z,81.70
2022-12-16T23:32:31.314Z,81.20
2022-12-16T23:34:10.510Z,81.70
2022-12-16T23:36:55.884Z,81.70
2022-12-16T23:39:43.670Z,81.70
2022-12-16T23:42:29.071Z,81.70
2022-12-16T23:45:17.474Z,81.70
2022-12-16T23:48:02.708Z,81.70
2022-12-16T23:50:48.507Z,81.70
2022-12-16T23:53:40.331Z,81.80
2022-12-16T23:56:26.913Z,81.80
2022-12-16T23:59:12.511Z,81.80
